Time;durP1;ratioP1;P1;durP2;ratioP2;P2;SDS_P1;SDS_P2;PMS_P1;PMS_P2;Temp;Humidity;BMP_temperature;BMP_pressure;BME280_temperature;BME280_humidity;BME280_pressure;Samples;Min_cycle;Max_cycle;Signal;HPM_P1;HPM_P2
2022/09/04 00:00:11;;;;;;;9.75;6.63;;;;;;;19.22;66.15;101255.41;5051150;28;20041;-43
2022/09/04 00:03:00;;;;;;;11.50;6.38;;;;;;;19.19;65.68;101256.56;5081664;28;20032;-43
2022/09/04 00:05:40;;;;;;;9.35;6.97;;;;;;;19.17;66.03;101258.59;5088498;28;20170;-44
2022/09/04 00:08:25;;;;;;;7.38;6.47;;;;;;;19.17;65.12;101257.75;5083492;28;20051;-43
2022/09/04 00:11:10;;;;;;;7.90;7.10;;;;;;;19.14;65.22;101267.00;5079795;28;20048;-44
2022/09/04 00:13:44;;;;;;;7.85;6.72;;;;;;;19.09;66.50;101269.34;5074930;28;20059;-44
2022/09/04 00:16:20;;;;;;;8.00;7.30;;;;;;;19.03;66.63;101268.16;5086971;28;20028;-43
2022/09/04 00:18:53;;;;;;;10.52;7.07;;;;;;;18.99;66.92;101269.47;5089886;28;20080;-45
2022/09/04 00:21:30;;;;;;;9.88;6.97;;;;;;;18.93;67.24;101272.81;5072405;28;20028;-44
2022/09/04 00:24:07;;;;;;;8.25;6.47;;;;;;;18.93;66.82;101275.50;5083839;28;20025;-43
2022/09/04 00:26:48;;;;;;;7.05;6.35;;;;;;;18.94;67.07;101269.13;5073608;28;20127;-44
2022/09/04 00:29:26;;;;;;;9.95;6.53;;;;;;;18.89;66.89;101270.63;5068406;28;20195;-43
2022/09/04 00:32:10;;;;;;;9.07;6.47;;;;;;;18.85;66.75;101264.69;5081056;28;20084;-43
2022/09/04 00:34:47;;;;;;;9.55;6.53;;;;;;;18.85;67.48;101270.94;5089705;28;20028;-43
2022/09/04 00:37:20;;;;;;;13.05;6.57;;;;;;;18.78;68.55;101279.78;5064702;28;20130;-44
2022/09/04 00:40:01;;;;;;;8.88;6.20;;;;;;;18.77;68.21;101270.88;5067145;28;20041;-42
2022/09/04 00:43:00;;;;;;;10.02;5.97;;;;;;;18.77;67.53;101275.38;5079909;28;20074;-41
2022/09/04 00:45:51;;;;;;;7.75;5.93;;;;;;;18.76;67.05;101277.25;5072691;28;20024;-42
2022/09/04 00:48:52;;;;;;;7.82;6.05;;;;;;;18.74;67.30;101278.44;5081576;28;20020;-43
2022/09/04 00:54:25;;;;;;;5.97;5.38;;;;;;;18.68;67.71;101286.13;5049291;28;20072;-81
2022/09/04 00:57:27;;;;;;;7.47;5.72;;;;;;;18.68;67.59;101285.28;5055740;28;20067;-81
2022/09/04 00:59:58;;;;;;;10.35;5.00;;;;;;;18.63;68.39;101285.75;5049396;28;20028;-81
2022/09/04 01:02:49;;;;;;;9.18;4.88;;;;;;;18.59;67.61;101279.00;5056785;28;20009;-80
2022/09/04 01:05:25;;;;;;;6.85;5.20;;;;;;;18.57;68.15;101294.47;5051149;28;20022;-79
2022/09/04 01:07:57;;;;;;;6.53;5.00;;;;;;;18.51;69.33;101291.56;5052317;28;20036;-80
2022/09/04 01:10:40;;;;;;;9.40;4.60;;;;;;;18.52;68.42;101295.94;5045061;28;20030;-81
2022/09/04 01:13:22;;;;;;;5.70;4.80;;;;;;;18.46;69.04;101295.56;5044842;28;20035;-80
2022/09/04 01:15:57;;;;;;;6.90;4.60;;;;;;;18.42;69.68;101296.91;5046821;28;20029;-80
2022/09/04 01:19:00;;;;;;;7.32;4.70;;;;;;;18.43;68.77;101308.50;5052414;28;20036;-80
2022/09/04 01:21:45;;;;;;;5.43;4.90;;;;;;;18.40;69.84;101311.50;5053955;28;20018;-81
2022/09/04 01:24:51;;;;;;;6.63;4.18;;;;;;;18.42;68.69;101315.72;5053314;28;20036;-80
2022/09/04 01:27:55;;;;;;;5.03;4.38;;;;;;;18.41;68.27;101316.72;5028394;28;20029;-81
2022/09/04 01:30:21;;;;;;;4.97;4.40;;;;;;;18.29;69.49;101320.69;5021274;28;20048;-80
2022/09/04 01:32:52;;;;;;;7.70;4.57;;;;;;;18.28;69.90;101324.34;5050577;28;20502;-81
2022/09/04 01:35:24;;;;;;;5.40;4.90;;;;;;;18.22;70.51;101322.28;5048041;28;20029;-81
2022/09/04 01:38:16;;;;;;;7.88;4.65;;;;;;;18.25;69.25;101317.47;5040603;28;20093;-81
2022/09/04 01:40:51;;;;;;;6.38;4.30;;;;;;;18.23;70.30;101324.81;5049987;28;20033;-81
2022/09/04 01:43:23;;;;;;;7.80;5.07;;;;;;;18.16;70.73;101322.94;5045304;28;20040;-80
2022/09/04 01:45:57;;;;;;;5.00;4.50;;;;;;;18.13;70.94;101329.44;5033763;28;20025;-81
2022/09/04 01:48:34;;;;;;;4.88;4.32;;;;;;;18.14;70.67;101330.31;5033181;28;20489;-80
2022/09/04 01:51:24;;;;;;;5.60;4.55;;;;;;;18.12;70.71;101327.78;5041997;28;20473;-81
2022/09/04 01:54:16;;;;;;;5.97;4.75;;;;;;;18.07;70.57;101322.03;5022242;28;20105;-81
2022/09/04 01:57:01;;;;;;;5.65;4.70;;;;;;;18.10;70.10;101330.63;5000954;28;20109;-81
2022/09/04 01:59:35;;;;;;;13.02;4.68;;;;;;;17.96;71.25;101328.47;5030465;28;20040;-81
2022/09/04 02:02:19;;;;;;;6.80;4.50;;;;;;;17.98;71.47;101341.75;5019185;28;20057;-81
2022/09/04 02:04:55;;;;;;;5.20;4.70;;;;;;;17.96;71.83;101341.06;5012678;28;20109;-80
2022/09/04 02:07:50;;;;;;;7.07;4.80;;;;;;;17.98;70.37;101352.50;5012608;28;20036;-81
2022/09/04 02:10:34;;;;;;;6.47;4.55;;;;;;;17.94;70.98;101352.81;5024008;28;20018;-80
2022/09/04 02:13:21;;;;;;;5.85;5.00;;;;;;;17.89;71.41;101346.22;5032684;28;20002;-81
2022/09/04 02:15:58;;;;;;;8.82;5.03;;;;;;;17.89;71.42;101355.09;5032291;28;20029;-80
2022/09/04 02:18:49;;;;;;;6.45;5.13;;;;;;;17.85;71.58;101351.03;5023428;28;20032;-81
2022/09/04 02:21:42;;;;;;;8.10;4.82;;;;;;;17.85;71.26;101352.84;5031771;28;20029;-80
2022/09/04 02:24:44;;;;;;;5.57;5.07;;;;;;;17.80;72.00;101357.81;5027595;28;20500;-80
2022/09/04 02:27:18;;;;;;;6.18;4.93;;;;;;;17.73;73.36;101363.81;5023869;28;20050;-80
2022/09/04 02:29:50;;;;;;;6.90;4.40;;;;;;;17.72;73.04;101367.50;5032353;28;20141;-81
2022/09/04 02:32:39;;;;;;;5.35;4.80;;;;;;;17.76;71.93;101365.34;5019613;28;20049;-82
2022/09/04 02:35:15;;;;;;;5.88;4.63;;;;;;;17.68;73.26;101363.41;5007534;28;20029;-82
2022/09/04 02:37:59;;;;;;;5.90;5.10;;;;;;;17.68;72.52;101363.41;5022091;28;20069;-83
2022/09/04 02:40:43;;;;;;;6.50;4.97;;;;;;;17.68;72.80;101362.56;5030274;28;20065;-81
2022/09/04 02:43:34;;;;;;;5.97;5.38;;;;;;;17.64;73.46;101371.94;5024591;28;20026;-81
2022/09/04 02:46:33;;;;;;;6.40;5.10;;;;;;;17.62;73.14;101382.84;5022434;28;20029;-81
2022/09/04 02:49:12;;;;;;;5.90;4.85;;;;;;;17.59;74.07;101379.63;5024191;28;20030;-82
2022/09/04 02:52:01;;;;;;;7.95;5.50;;;;;;;17.55;73.92;101379.91;5026629;28;20444;-82
2022/09/04 02:55:01;;;;;;;6.28;5.22;;;;;;;17.52;74.03;101380.22;5033196;28;20049;-82
2022/09/04 02:57:57;;;;;;;6.60;5.25;;;;;;;17.53;74.25;101383.72;5019657;28;20027;-82
2022/09/04 03:00:53;;;;;;;7.60;5.57;;;;;;;17.48;75.22;101388.72;5032934;28;20087;-81
2022/09/04 03:03:41;;;;;;;6.15;5.38;;;;;;;17.50;74.51;101392.94;5039727;28;20037;-81
2022/09/04 03:06:14;;;;;;;7.18;5.97;;;;;;;17.45;75.27;101389.84;5027082;28;20030;-81
2022/09/04 03:08:52;;;;;;;5.82;5.32;;;;;;;17.44;75.23;101387.31;5035395;28;20045;-81
2022/09/04 03:11:31;;;;;;;7.80;5.43;;;;;;;17.36;76.39;101386.22;5030829;28;20029;-82
2022/09/04 03:14:04;;;;;;;;;;;;;;;17.50;72.40;101397.44;5039342;28;20045;-82
2022/09/04 03:16:58;;;;;;;8.15;5.47;;;;;;;17.43;74.94;101399.06;5038273;28;19920;-82
2022/09/04 03:19:35;;;;;;;8.88;6.00;;;;;;;17.33;76.47;101391.03;5037710;28;20022;-83
2022/09/04 03:22:09;;;;;;;10.23;5.85;;;;;;;17.36;76.05;101399.63;5036179;28;20036;-82
2022/09/04 03:24:40;;;;;;;6.90;5.82;;;;;;;17.31;76.71;101401.94;5035206;28;20057;-82
2022/09/04 03:27:09;;;;;;;6.03;5.43;;;;;;;17.27;76.78;101405.03;5030206;28;20002;-80
2022/09/04 03:29:43;;;;;;;;;;;;;;;17.39;73.29;101391.28;5016370;28;20034;-81
2022/09/04 03:32:34;;;;;;;7.18;5.78;;;;;;;17.30;75.70;101399.38;5035401;28;19944;-81
2022/09/04 03:35:30;;;;;;;8.60;5.75;;;;;;;17.24;76.81;101406.22;5033168;28;20100;-81
2022/09/04 03:38:21;;;;;;;5.80;5.30;;;;;;;17.28;75.96;101404.91;5035652;28;20037;-81
2022/09/04 03:40:52;;;;;;;6.93;6.13;;;;;;;17.17;77.84;101405.13;5017352;28;20080;-81
2022/09/04 03:43:30;;;;;;;8.40;5.88;;;;;;;17.16;78.39;101401.56;5018364;28;20065;-81
2022/09/04 03:46:14;;;;;;;7.20;6.43;;;;;;;17.17;77.41;101408.63;5031614;28;20017;-81
2022/09/04 03:48:50;;;;;;;7.10;6.40;;;;;;;17.15;78.01;101405.25;5035973;28;20028;-81
2022/09/04 03:51:57;;;;;;;6.65;6.05;;;;;;;17.16;76.75;101411.47;5035471;28;20037;-81
2022/09/04 03:55:02;;;;;;;7.80;5.88;;;;;;;17.12;77.21;101415.41;4984261;28;20046;-80
2022/09/04 03:57:58;;;;;;;7.40;6.53;;;;;;;17.09;77.82;101418.41;5010275;28;20089;-81
2022/09/04 04:00:23;;;;;;;6.25;5.72;;;;;;;17.09;78.62;101418.41;5017841;28;20026;-80
2022/09/04 04:03:19;;;;;;;6.47;5.88;;;;;;;17.09;77.11;101416.56;5015380;28;20033;-81
2022/09/04 04:06:17;;;;;;;6.60;6.00;;;;;;;17.09;77.62;101423.78;5016267;28;20030;-81
2022/09/04 04:09:17;;;;;;;6.63;6.03;;;;;;;17.06;78.03;101422.22;5017022;28;20027;-81
2022/09/04 04:11:58;;;;;;;8.45;6.35;;;;;;;17.04;78.64;101420.66;5015807;28;20036;-82
2022/09/04 04:14:40;;;;;;;6.70;6.10;;;;;;;17.01;78.91;101425.34;5006801;28;20023;-81
2022/09/04 04:17:42;;;;;;;6.80;6.10;;;;;;;17.05;78.36;101431.25;5017096;28;20033;-81
2022/09/04 04:20:24;;;;;;;6.68;5.82;;;;;;;17.03;78.05;101433.25;5012454;28;20050;-81
2022/09/04 04:23:16;;;;;;;8.25;6.03;;;;;;;17.02;78.96;101436.94;5017784;28;20493;-82
2022/09/04 04:26:07;;;;;;;11.73;6.60;;;;;;;17.02;77.50;101442.31;5008323;28;20030;-81
2022/09/04 04:28:35;;;;;;;7.47;6.70;;;;;;;16.95;79.33;101443.84;5017219;28;20436;-81
2022/09/04 04:31:27;;;;;;;7.07;6.38;;;;;;;16.93;79.50;101446.69;5017631;28;20035;-81
2022/09/04 04:34:05;;;;;;;6.45;5.85;;;;;;;16.90;79.21;101444.28;5017702;28;20060;-81
2022/09/04 04:37:09;;;;;;;7.20;6.50;;;;;;;16.93;78.21;101452.06;5005148;28;20030;-81
2022/09/04 04:39:57;;;;;;;7.63;6.93;;;;;;;16.79;80.04;101436.38;4954269;28;20018;-82
2022/09/04 04:42:46;;;;;;;7.57;6.88;;;;;;;16.75;80.27;101446.56;5018984;28;20061;-82
2022/09/04 04:48:36;;;;;;;7.78;6.97;;;;;;;16.70;81.42;101440.75;5004868;28;20014;-81
2022/09/04 04:51:07;;;;;;;7.72;6.93;;;;;;;16.64;81.85;101446.72;5013226;28;20027;-81
2022/09/04 04:54:12;;;;;;;7.75;7.00;;;;;;;16.64;81.44;101452.91;5023187;28;20030;-81
2022/09/04 04:56:47;;;;;;;8.57;6.78;;;;;;;16.63;81.13;101447.69;5029820;28;20050;-81
2022/09/04 04:59:19;;;;;;;7.53;6.78;;;;;;;16.62;82.33;101462.06;5039327;28;20020;-81
2022/09/04 05:02:07;;;;;;;8.35;7.43;;;;;;;16.65;81.00;101457.31;5039036;28;20029;-80
2022/09/04 05:04:40;;;;;;;7.97;7.17;;;;;;;16.67;81.39;101461.66;5033179;28;20376;-81
2022/09/04 05:07:20;;;;;;;9.18;7.25;;;;;;;16.62;81.20;101470.13;5036257;28;20060;-80
2022/09/04 05:09:54;;;;;;;8.18;7.07;;;;;;;16.63;82.35;101471.81;5035703;28;20073;-81
2022/09/04 05:12:47;;;;;;;7.68;6.88;;;;;;;16.67;80.76;101473.25;5031464;28;20030;-81
2022/09/04 05:15:21;;;;;;;7.88;6.97;;;;;;;16.62;82.37;101476.34;5035900;28;20022;-81
2022/09/04 05:18:10;;;;;;;9.93;7.40;;;;;;;16.65;82.16;101489.50;5035390;28;20034;-82
2022/09/04 05:20:54;;;;;;;8.00;7.20;;;;;;;16.67;81.17;101485.78;5005907;28;20034;-82
2022/09/04 05:23:35;;;;;;;9.30;7.18;;;;;;;16.67;82.33;101489.34;5031589;28;20033;-79
2022/09/04 05:26:06;;;;;;;8.55;7.45;;;;;;;16.67;82.77;101501.88;5034794;28;20030;-79
2022/09/04 05:29:09;;;;;;;8.27;7.28;;;;;;;16.70;81.30;101504.28;5035472;28;20029;-81
2022/09/04 05:31:34;;;;;;;8.45;7.55;;;;;;;16.65;83.18;101502.91;5036538;28;20065;-81
2022/09/04 05:34:17;;;;;;;9.30;8.40;;;;;;;16.67;82.85;101501.88;5036180;28;20030;-80
2022/09/04 05:37:05;;;;;;;9.48;7.75;;;;;;;16.68;82.71;101512.47;5024588;28;20025;-80
2022/09/04 05:39:52;;;;;;;10.18;8.80;;;;;;;16.71;82.98;101517.56;5034324;28;20117;-79
2022/09/04 05:42:40;;;;;;;10.73;8.63;;;;;;;16.70;82.81;101517.69;5034538;28;20034;-81
2022/09/04 05:45:24;;;;;;;10.47;8.60;;;;;;;16.71;82.61;101520.25;5023089;28;20025;-81
2022/09/04 05:48:02;;;;;;;10.70;8.90;;;;;;;16.72;83.80;101521.09;5036680;28;20018;-80
2022/09/04 05:50:39;;;;;;;9.20;8.30;;;;;;;16.75;83.19;101529.72;5032351;28;20199;-81
2022/09/04 05:53:21;;;;;;;9.75;8.82;;;;;;;16.77;83.69;101535.78;5024090;28;20053;-81
2022/09/04 05:56:10;;;;;;;9.95;8.35;;;;;;;16.82;83.83;101543.41;5018200;28;20052;-80
2022/09/04 05:58:59;;;;;;;11.57;8.45;;;;;;;16.85;83.15;101547.66;5037424;28;20014;-81
2022/09/04 06:01:48;;;;;;;10.77;9.10;;;;;;;16.88;82.80;101539.34;5015130;28;20029;-81
2022/09/04 06:04:23;;;;;;;9.38;8.48;;;;;;;16.88;83.22;101542.03;5030314;28;20026;-82
2022/09/04 06:07:11;;;;;;;9.73;8.75;;;;;;;16.89;83.10;101543.72;5021444;28;20133;-83
2022/09/04 06:09:55;;;;;;;10.48;9.20;;;;;;;16.86;83.87;101549.38;5022192;28;20061;-83
2022/09/04 06:12:56;;;;;;;12.25;9.52;;;;;;;16.91;83.15;101552.47;5020361;28;20022;-81
2022/09/04 06:15:50;;;;;;;10.40;9.10;;;;;;;16.91;83.91;101555.16;5013957;28;20117;-80
2022/09/04 06:18:40;;;;;;;10.77;8.98;;;;;;;16.97;82.91;101543.84;4991033;28;20076;-80
2022/09/04 06:21:30;;;;;;;10.48;9.57;;;;;;;16.99;82.88;101549.94;5014174;28;20046;-80
2022/09/04 06:24:30;;;;;;;9.80;8.80;;;;;;;17.06;82.18;101551.06;5016147;28;20111;-80
2022/09/04 06:27:17;;;;;;;12.20;10.07;;;;;;;17.12;83.20;101555.84;4922552;29;20056;-81
2022/09/04 06:29:49;;;;;;;14.45;9.48;;;;;;;17.17;83.52;101555.44;5008543;28;20477;-81
2022/09/04 06:32:44;;;;;;;12.38;10.07;;;;;;;17.24;83.11;101553.03;4999094;28;20042;-81
2022/09/04 06:35:31;;;;;;;14.30;9.95;;;;;;;17.29;83.13;101561.50;5017482;28;20037;-81
2022/09/04 06:38:27;;;;;;;17.25;10.43;;;;;;;17.35;82.74;101560.88;5016738;28;20430;-81
2022/09/04 06:41:29;;;;;;;10.60;8.85;;;;;;;17.42;82.82;101562.03;5017125;28;20049;-81
2022/09/04 06:44:39;;;;;;;11.45;10.25;;;;;;;17.49;82.97;101564.97;5011340;28;20377;-81
2022/09/04 06:47:20;;;;;;;13.38;9.60;;;;;;;17.57;82.57;101574.00;5009388;28;20046;-81
2022/09/04 06:50:21;;;;;;;16.25;11.00;;;;;;;17.63;82.85;101566.34;5014327;28;20061;-82
2022/09/04 06:53:01;;;;;;;12.32;10.82;;;;;;;17.71;83.00;101561.91;5006999;28;20050;-81
2022/09/04 06:55:45;;;;;;;12.90;10.02;;;;;;;17.81;82.81;101567.28;5011457;28;20044;-81
2022/09/04 06:58:49;;;;;;;14.48;10.27;;;;;;;17.91;82.04;101570.78;5016466;28;20116;-81
2022/09/04 07:01:39;;;;;;;13.48;10.88;;;;;;;18.01;82.57;101565.38;5024787;28;20084;-81
2022/09/04 07:04:22;;;;;;;20.35;10.63;;;;;;;18.11;82.48;101559.94;5014274;28;20026;-81
2022/09/04 07:07:13;;;;;;;14.43;10.35;;;;;;;18.24;81.88;101565.81;5021295;28;20509;-80
2022/09/04 07:09:53;;;;;;;13.85;10.68;;;;;;;18.38;81.74;101569.00;5026188;28;20030;-81
2022/09/04 07:12:27;;;;;;;12.57;10.88;;;;;;;18.57;81.12;101574.25;5025806;28;20046;-81
2022/09/04 07:15:13;;;;;;;12.30;10.52;;;;;;;18.77;80.16;101585.72;5025424;28;20022;-82
2022/09/04 07:18:16;;;;;;;12.90;11.02;;;;;;;19.07;79.17;101580.13;5011539;28;20026;-81
2022/09/04 07:21:10;;;;;;;13.73;10.65;;;;;;;19.28;78.78;101583.31;5021861;28;20025;-82
2022/09/04 07:23:58;;;;;;;11.73;10.48;;;;;;;19.46;77.15;101585.16;5022160;28;20033;-81
2022/09/04 07:26:33;;;;;;;14.80;10.93;;;;;;;19.69;76.28;101589.00;5005835;28;20029;-82
2022/09/04 07:29:15;;;;;;;14.35;11.73;;;;;;;19.86;75.81;101591.81;5012914;28;20424;-81
2022/09/04 07:31:48;;;;;;;12.43;10.65;;;;;;;20.07;74.99;101584.16;5018928;28;20030;-81
2022/09/04 07:34:24;;;;;;;14.65;11.15;;;;;;;20.33;74.53;101588.63;4999370;28;20020;-82
2022/09/04 07:36:55;;;;;;;14.20;11.55;;;;;;;20.71;73.07;101599.91;5015483;28;20088;-80
2022/09/04 07:39:53;;;;;;;15.30;11.13;;;;;;;20.87;73.42;101602.63;5005791;28;20034;-81
2022/09/04 07:42:27;;;;;;;12.13;10.73;;;;;;;21.17;71.75;101605.69;5007817;28;20030;-80
2022/09/04 07:45:04;;;;;;;13.85;10.95;;;;;;;21.36;70.67;101609.06;5014955;28;20648;-83
2022/09/04 07:47:34;;;;;;;13.23;11.10;;;;;;;21.61;69.60;101608.03;5016900;28;20030;-81
2022/09/04 07:50:19;;;;;;;12.25;10.55;;;;;;;21.73;68.99;101613.09;5017125;28;20026;-82
2022/09/04 07:52:56;;;;;;;14.05;11.38;;;;;;;21.76;68.90;101618.97;5018729;28;20081;-84
2022/09/04 07:55:45;;;;;;;13.60;11.52;;;;;;;21.86;69.24;101613.38;5030262;28;20038;-82
2022/09/04 07:58:30;;;;;;;15.07;11.43;;;;;;;22.02;68.79;101611.66;5025239;28;20037;-82
2022/09/04 08:01:32;;;;;;;15.13;10.95;;;;;;;22.23;68.32;101616.47;5040327;28;20010;-82
2022/09/04 08:04:09;;;;;;;14.45;11.45;;;;;;;22.50;67.48;101617.91;5023351;28;20049;-81
2022/09/04 08:06:48;;;;;;;12.57;11.20;;;;;;;22.68;66.47;101621.19;5040308;28;20037;-82
2022/09/04 08:09:32;;;;;;;13.68;11.27;;;;;;;23.00;66.21;101621.13;5020668;28;20056;-80
2022/09/04 08:12:25;;;;;;;14.88;11.52;;;;;;;23.34;65.58;101626.13;5021459;28;20013;-81
2022/09/04 08:14:59;;;;;;;12.82;11.13;;;;;;;23.57;63.72;101625.25;5037622;28;20127;-81
2022/09/04 08:17:48;;;;;;;13.57;10.88;;;;;;;23.77;62.67;101623.69;5038382;28;20037;-81
2022/09/04 08:20:37;;;;;;;13.90;10.65;;;;;;;24.11;62.87;101621.47;5025583;28;20029;-82
2022/09/04 08:23:36;;;;;;;11.85;10.65;;;;;;;24.35;61.09;101628.47;5007948;28;20058;-83
2022/09/04 08:26:24;;;;;;;14.10;10.20;;;;;;;24.68;60.80;101626.19;5011554;28;20049;-82
2022/09/04 08:28:52;;;;;;;15.38;10.18;;;;;;;24.99;59.52;101630.47;5013101;28;20053;-83
2022/09/04 08:31:29;;;;;;;14.68;10.48;;;;;;;25.11;59.05;101630.78;5017391;28;20029;-83
2022/09/04 08:34:22;;;;;;;12.70;9.50;;;;;;;25.44;58.10;101635.69;5015167;28;20091;-83
2022/09/04 08:36:58;;;;;;;12.70;9.80;;;;;;;25.61;56.72;101631.66;5021108;28;20048;-83
2022/09/04 08:39:49;;;;;;;14.18;8.88;;;;;;;25.86;56.37;101642.06;5010467;28;20038;-83
2022/09/04 08:42:52;;;;;;;12.95;9.93;;;;;;;25.92;56.56;101649.44;5011504;28;20081;-84
2022/09/04 08:45:58;;;;;;;11.20;8.52;;;;;;;26.20;56.41;101640.41;5013025;28;20027;-82
2022/09/04 08:48:40;;;;;;;12.50;10.23;;;;;;;26.46;54.75;101641.56;5011760;28;20056;-82
2022/09/04 08:51:39;;;;;;;8.02;7.22;;;;;;;26.54;54.91;101642.22;5015803;28;20026;-82
2022/09/04 08:54:15;;;;;;;;;;;;;;;26.83;56.22;101651.16;5017136;28;20046;-83
2022/09/04 08:56:49;;;;;;;10.13;7.55;;;;;;;26.80;53.18;101648.00;5017219;28;19917;-83
2022/09/04 08:59:31;;;;;;;10.50;6.93;;;;;;;27.19;53.28;101646.38;5010839;28;20033;-80
2022/09/04 09:02:33;;;;;;;8.23;7.10;;;;;;;27.39;52.25;101643.69;5017055;28;20033;-79
2022/09/04 09:05:08;;;;;;;11.07;7.30;;;;;;;27.47;50.21;101647.03;5019681;28;20041;-81
2022/09/04 09:08:07;;;;;;;7.13;6.43;;;;;;;27.55;50.31;101653.34;5020596;28;20049;-81
2022/09/04 09:11:02;;;;;;;8.40;6.40;;;;;;;27.82;50.45;101649.50;5016844;28;20056;-79
2022/09/04 09:13:55;;;;;;;7.93;6.03;;;;;;;28.10;50.27;101650.34;5008962;28;20244;-82
2022/09/04 09:16:20;;;;;;;7.53;5.95;;;;;;;28.22;47.38;101643.97;5016398;28;20036;-84
2022/09/04 09:18:52;;;;;;;7.97;5.70;;;;;;;28.35;47.62;101645.00;4986563;28;20525;-82
2022/09/04 09:21:43;;;;;;;7.45;4.93;;;;;;;28.43;48.15;101642.84;4993125;28;20037;-82
2022/09/04 09:24:29;;;;;;;8.52;5.43;;;;;;;28.58;47.50;101642.59;5013238;28;20461;-82
2022/09/04 09:27:10;;;;;;;5.05;4.25;;;;;;;28.75;46.62;101634.72;4995728;28;20037;-82
2022/09/04 09:29:42;;;;;;;8.23;4.57;;;;;;;29.05;45.44;101628.63;5014478;28;20034;-82
2022/09/04 09:32:35;;;;;;;6.85;3.80;;;;;;;29.21;45.46;101640.09;5014682;28;20032;-82
2022/09/04 09:35:40;;;;;;;7.00;4.47;;;;;;;29.52;45.83;101631.81;5013828;28;20105;-82
2022/09/04 09:38:36;;;;;;;6.05;3.72;;;;;;;29.77;44.71;101643.81;5014730;28;20040;-82
2022/09/04 09:41:16;;;;;;;6.68;3.92;;;;;;;29.92;43.49;101640.75;5015387;28;20367;-82
2022/09/04 09:43:52;;;;;;;5.93;4.03;;;;;;;30.13;43.47;101636.69;5022792;28;20082;-82
2022/09/04 09:46:39;;;;;;;6.05;3.95;;;;;;;30.43;43.89;101640.34;5017839;28;20030;-82
2022/09/04 09:49:25;;;;;;;4.07;3.40;;;;;;;30.53;40.63;101631.56;5012658;28;20455;-82
2022/09/04 09:52:15;;;;;;;3.83;3.42;;;;;;;30.73;41.13;101635.94;4995092;28;20053;-82
2022/09/04 09:55:06;;;;;;;6.35;4.15;;;;;;;30.99;42.22;101645.69;5001179;28;20112;-82
2022/09/04 09:57:49;;;;;;;5.13;3.85;;;;;;;31.12;40.99;101640.00;5008907;28;20036;-83
2022/09/04 10:00:16;;;;;;;4.63;2.83;;;;;;;31.09;38.57;101645.13;5017480;28;20044;-82
2022/09/04 10:02:54;;;;;;;5.60;3.70;;;;;;;31.15;38.72;101645.03;5016647;28;20105;-83
2022/09/04 10:05:58;;;;;;;4.23;3.00;;;;;;;31.30;39.92;101652.78;5010092;28;20030;-84
2022/09/04 10:08:34;;;;;;;5.38;2.75;;;;;;;31.25;39.42;101649.09;5013646;28;20323;-82
2022/09/04 10:11:14;;;;;;;6.00;2.90;;;;;;;31.13;39.21;101643.59;5014348;28;20371;-82
2022/09/04 10:14:07;;;;;;;3.22;2.92;;;;;;;31.39;38.70;101649.69;5019584;28;20704;-82
2022/09/04 10:17:04;;;;;;;4.30;2.00;;;;;;;31.57;38.98;101641.38;5013964;28;20057;-83
2022/09/04 10:19:50;;;;;;;5.53;2.20;;;;;;;31.90;38.17;101639.94;5016462;28;20025;-82
2022/09/04 10:22:50;;;;;;;2.22;1.40;;;;;;;31.88;36.69;101634.69;5019308;28;20026;-83
2022/09/04 10:25:43;;;;;;;2.65;1.73;;;;;;;32.19;36.95;101646.38;5017951;28;20480;-81
2022/09/04 10:28:40;;;;;;;2.60;1.70;;;;;;;32.35;36.22;101641.16;5015216;28;20029;-83
2022/09/04 10:31:24;;;;;;;3.55;2.00;;;;;;;32.56;34.96;101642.38;5016093;28;20052;-84
2022/09/04 10:34:24;;;;;;;2.85;2.00;;;;;;;32.82;35.48;101641.81;5018396;28;20112;-83
2022/09/04 10:37:05;;;;;;;2.95;1.98;;;;;;;32.87;34.51;101646.56;5013437;28;20066;-81
2022/09/04 10:42:38;;;;;;;3.95;1.42;;;;;;;33.01;34.12;101650.69;5002268;28;20040;-80
2022/09/04 10:45:26;;;;;;;2.00;1.80;;;;;;;32.64;34.32;101637.38;5013016;28;20088;-81
2022/09/04 10:48:23;;;;;;;2.45;1.70;;;;;;;32.52;34.75;101650.28;5013175;28;20029;-80
2022/09/04 10:51:26;;;;;;;5.13;1.60;;;;;;;32.84;34.76;101649.81;5014764;28;20048;-80
2022/09/04 10:53:55;;;;;;;2.63;1.80;;;;;;;32.66;33.95;101641.78;5017130;28;20305;-79
2022/09/04 10:56:41;;;;;;;6.18;2.00;;;;;;;32.76;34.10;101645.56;5014124;28;20076;-81
2022/09/04 10:59:32;;;;;;;2.40;1.60;;;;;;;32.85;33.95;101631.41;5014266;28;20041;-82
2022/09/04 11:02:16;;;;;;;2.08;1.73;;;;;;;32.83;33.04;101642.66;5001697;28;20084;-82
2022/09/04 11:04:53;;;;;;;4.70;1.50;;;;;;;32.80;32.35;101637.66;5014401;28;20030;-83
2022/09/04 11:07:31;;;;;;;3.15;2.22;;;;;;;32.92;32.31;101632.06;5014511;28;20026;-83
2022/09/04 11:10:29;;;;;;;2.78;1.88;;;;;;;33.16;33.10;101630.06;5017579;28;20080;-83
2022/09/04 11:12:54;;;;;;;6.93;2.67;;;;;;;33.03;30.89;101628.41;5014053;28;20068;-83
2022/09/04 11:15:22;;;;;;;3.23;2.47;;;;;;;33.16;30.34;101630.06;5016427;28;20030;-81
2022/09/04 11:18:13;;;;;;;2.92;1.75;;;;;;;33.00;30.77;101640.75;5024965;28;20057;-82
2022/09/04 11:20:44;;;;;;;1.73;1.63;;;;;;;32.97;30.80;101632.97;5031525;28;20033;-82
2022/09/04 11:23:28;;;;;;;3.00;1.40;;;;;;;32.98;30.36;101636.59;5027977;28;20092;-81
2022/09/04 11:26:04;;;;;;;6.80;1.60;;;;;;;32.72;29.68;101630.63;4998596;28;20031;-81
2022/09/04 11:29:09;;;;;;;4.00;1.77;;;;;;;33.07;30.85;101631.50;5011210;28;20129;-81
2022/09/04 11:31:45;;;;;;;3.60;2.10;;;;;;;32.99;29.81;101638.25;5014786;28;20541;-81
2022/09/04 11:34:43;;;;;;;3.65;2.22;;;;;;;32.57;30.97;101636.63;5018922;28;20040;-81
2022/09/04 11:37:17;;;;;;;;;;;;;;;33.11;31.18;101630.75;5019279;28;20034;-82
2022/09/04 11:39:51;;;;;;;4.68;1.98;;;;;;;32.68;30.73;101636.88;5017344;28;20272;-82
2022/09/04 11:42:39;;;;;;;2.80;1.95;;;;;;;32.56;27.66;101635.00;5009664;28;20033;-83
2022/09/04 11:45:22;;;;;;;3.22;2.10;;;;;;;32.43;30.52;101643.53;5020861;28;20457;-81
2022/09/04 11:48:36;;;;;;;3.78;2.00;;;;;;;32.48;31.26;101638.13;5017203;28;20120;-80
2022/09/04 11:51:16;;;;;;;3.47;1.88;;;;;;;32.64;30.85;101633.78;5007158;28;20128;-81
2022/09/04 11:53:51;;;;;;;3.33;1.80;;;;;;;32.71;29.48;101642.72;4997713;28;20060;-81
2022/09/04 11:56:44;;;;;;;4.18;2.38;;;;;;;32.80;30.10;101635.72;5028116;28;20065;-81
2022/09/04 11:59:20;;;;;;;4.60;2.13;;;;;;;32.79;30.07;101634.06;5016290;28;20034;-80
2022/09/04 12:01:57;;;;;;;3.70;2.00;;;;;;;32.68;29.49;101634.13;5003303;28;20037;-81
2022/09/04 12:04:47;;;;;;;2.95;2.10;;;;;;;32.82;30.22;101638.22;5017138;28;20091;-81
2022/09/04 12:07:18;;;;;;;3.38;1.90;;;;;;;32.64;29.53;101633.78;5016979;28;20022;-81
2022/09/04 12:09:52;;;;;;;4.18;1.80;;;;;;;32.49;29.93;101638.97;5017339;28;20026;-82
2022/09/04 12:12:36;;;;;;;4.35;2.08;;;;;;;32.50;29.40;101638.72;5015570;28;20025;-83
2022/09/04 12:15:28;;;;;;;4.93;1.77;;;;;;;32.69;29.98;101636.63;5015486;28;20025;-83
2022/09/04 12:18:32;;;;;;;2.03;1.60;;;;;;;32.63;30.00;101648.63;5015902;28;20021;-83
2022/09/04 12:21:33;;;;;;;2.53;1.60;;;;;;;32.63;30.30;101649.44;5015187;28;20026;-83
2022/09/04 12:24:24;;;;;;;5.40;1.80;;;;;;;32.62;29.37;101652.44;5015786;28;20046;-82
2022/09/04 12:26:58;;;;;;;3.67;1.70;;;;;;;32.39;28.67;101651.44;4996572;28;20388;-82
2022/09/04 12:29:39;;;;;;;3.15;1.80;;;;;;;32.49;29.23;101649.97;5014641;28;20034;-83
2022/09/04 12:32:34;;;;;;;2.45;1.40;;;;;;;32.50;28.92;101640.63;5006633;28;20029;-82
2022/09/04 12:35:28;;;;;;;2.10;1.55;;;;;;;32.59;29.86;101639.16;5022544;28;20025;-83
2022/09/04 12:38:16;;;;;;;3.83;1.60;;;;;;;32.47;29.41;101644.69;5016123;28;20339;-84
2022/09/04 12:40:46;;;;;;;4.63;1.97;;;;;;;32.57;29.15;101641.31;5019884;28;20469;-82
2022/09/04 12:43:41;;;;;;;2.20;1.50;;;;;;;32.39;28.85;101651.44;5012074;28;20108;-82
2022/09/04 12:46:38;;;;;;;3.72;2.42;;;;;;;32.46;29.90;101645.78;5002028;28;20129;-83
2022/09/04 12:49:26;;;;;;;3.47;1.70;;;;;;;32.31;29.03;101653.72;4994328;28;20026;-82
2022/09/04 12:52:02;;;;;;;;;;;;;;;32.66;30.36;101644.53;5012205;28;20109;-82